createdAt,value
2022-08-26T00:02:34.341Z,9.00
2022-08-26T00:07:34.165Z,9.00
2022-08-26T00:12:37.479Z,8.80
2022-08-26T00:17:34.175Z,8.80
2022-08-26T00:22:34.149Z,7.80
2022-08-26T00:27:34.164Z,7.80
2022-08-26T00:32:34.189Z,7.70
2022-08-26T00:37:34.243Z,7.70
2022-08-26T00:42:34.154Z,9.80
2022-08-26T00:47:34.216Z,9.80
2022-08-26T00:52:34.160Z,8.70
2022-08-26T00:57:34.216Z,8.70
2022-08-26T01:02:34.221Z,7.60
2022-08-26T01:07:34.901Z,7.60
2022-08-26T01:12:34.169Z,7.20
2022-08-26T01:17:34.282Z,7.20
2022-08-26T01:22:34.192Z,7.40
2022-08-26T01:27:34.225Z,7.40
2022-08-26T01:32:34.210Z,8.30
2022-08-26T01:37:34.239Z,8.30
2022-08-26T01:42:34.192Z,7.70
2022-08-26T01:47:34.419Z,7.70
2022-08-26T01:52:34.202Z,7.60
2022-08-26T01:57:34.239Z,7.60
2022-08-26T02:02:34.226Z,7.90
2022-08-26T02:07:34.223Z,7.90
2022-08-26T02:12:34.196Z,10.50
2022-08-26T02:17:34.258Z,10.50
2022-08-26T02:22:34.214Z,7.30
2022-08-26T02:27:34.230Z,7.30
2022-08-26T02:32:34.240Z,7.60
2022-08-26T02:37:34.236Z,7.60
2022-08-26T02:42:34.221Z,7.80
2022-08-26T02:47:34.273Z,7.80
2022-08-26T02:52:34.242Z,9.20
2022-08-26T02:57:34.271Z,9.20
2022-08-26T03:02:34.264Z,8.50
2022-08-26T03:07:34.296Z,8.50
2022-08-26T03:12:34.229Z,8.20
2022-08-26T03:17:34.310Z,8.20
2022-08-26T03:22:34.243Z,12.80
2022-08-26T03:27:34.280Z,12.80
2022-08-26T03:32:34.295Z,8.10
2022-08-26T03:37:34.294Z,8.10
2022-08-26T03:42:34.251Z,10.10
2022-08-26T03:47:34.325Z,10.10
2022-08-26T03:52:34.258Z,9.00
2022-08-26T03:57:34.287Z,9.00
2022-08-26T04:02:34.381Z,7.40
2022-08-26T04:07:34.307Z,7.40
2022-08-26T04:12:34.270Z,9.60
2022-08-26T04:17:34.331Z,9.60
2022-08-26T04:27:34.557Z,7.50
2022-08-26T04:32:34.359Z,7.70
2022-08-26T04:37:34.311Z,7.70
2022-08-26T04:42:34.361Z,7.90
2022-08-26T04:47:34.344Z,7.90
2022-08-26T04:52:34.290Z,8.70
2022-08-26T04:57:34.316Z,8.70
2022-08-26T05:02:34.337Z,7.70
2022-08-26T05:07:34.327Z,7.70
2022-08-26T05:12:34.302Z,7.90
2022-08-26T05:17:34.373Z,7.90
2022-08-26T05:22:34.308Z,6.20
2022-08-26T05:27:34.348Z,6.20
2022-08-26T05:32:34.340Z,9.00
2022-08-26T05:37:34.362Z,9.00
2022-08-26T05:42:34.385Z,10.60
2022-08-26T05:47:34.376Z,10.60
2022-08-26T05:52:34.316Z,9.30
2022-08-26T05:57:38.663Z,9.30
2022-08-26T06:02:34.516Z,9.20
2022-08-26T06:07:34.366Z,9.20
2022-08-26T06:12:34.322Z,11.30
2022-08-26T06:22:34.384Z,8.70
2022-08-26T06:27:34.358Z,8.70
2022-08-26T06:32:34.414Z,11.40
2022-08-26T06:37:34.389Z,11.40
2022-08-26T06:42:34.482Z,9.00
2022-08-26T06:47:34.348Z,9.00
2022-08-26T06:52:34.410Z,9.00
2022-08-26T06:57:34.890Z,9.00
2022-08-26T07:02:34.469Z,10.40
2022-08-26T07:07:34.404Z,10.40
2022-08-26T07:12:34.382Z,9.70
2022-08-26T07:17:34.363Z,9.70
2022-08-26T07:22:34.399Z,10.30
2022-08-26T07:27:34.381Z,10.30
2022-08-26T07:32:34.423Z,9.30
2022-08-26T07:37:35.650Z,9.30
2022-08-26T07:42:34.511Z,9.10
2022-08-26T07:47:34.381Z,9.10
2022-08-26T07:52:34.421Z,6.50
2022-08-26T08:02:34.439Z,6.90
2022-08-26T08:07:38.361Z,6.90
2022-08-26T08:12:34.415Z,8.10
2022-08-26T08:17:34.479Z,8.10
2022-08-26T08:22:34.436Z,8.90
2022-08-26T08:27:34.406Z,8.90
2022-08-26T08:32:34.467Z,9.40
2022-08-26T08:37:34.445Z,9.40
2022-08-26T08:42:34.461Z,8.50
2022-08-26T08:47:34.422Z,8.50
2022-08-26T08:52:34.460Z,8.80
2022-08-26T08:57:34.442Z,8.80
2022-08-26T09:02:34.596Z,9.10
2022-08-26T09:07:36.491Z,9.10
2022-08-26T09:12:34.543Z,7.40
2022-08-26T09:17:34.431Z,7.40
2022-08-26T09:22:34.473Z,6.70
2022-08-26T09:27:34.447Z,6.70
2022-08-26T09:32:34.490Z,8.70
2022-08-26T09:37:34.579Z,8.70
2022-08-26T09:42:35.895Z,8.40
2022-08-26T09:47:34.445Z,8.40
2022-08-26T09:52:34.521Z,8.90
2022-08-26T09:57:34.452Z,8.90
2022-08-26T10:02:34.530Z,7.60
2022-08-26T10:07:34.489Z,7.60
2022-08-26T10:12:34.498Z,8.90
2022-08-26T10:22:34.503Z,6.90
2022-08-26T10:27:34.475Z,6.90
2022-08-26T10:32:34.515Z,9.80
2022-08-26T10:37:34.609Z,9.80
2022-08-26T10:42:34.548Z,8.90
2022-08-26T10:47:34.511Z,8.90
2022-08-26T10:52:34.532Z,10.30
2022-08-26T10:57:34.496Z,10.30
2022-08-26T11:02:34.569Z,8.70
2022-08-26T11:12:34.541Z,9.00
2022-08-26T11:17:34.516Z,9.00
2022-08-26T11:22:34.559Z,7.30
2022-08-26T11:27:34.545Z,7.30
2022-08-26T11:32:34.574Z,7.10
2022-08-26T11:37:34.556Z,7.10
2022-08-26T11:42:34.557Z,7.00
2022-08-26T11:47:34.527Z,7.00
2022-08-26T11:52:34.579Z,7.10
2022-08-26T11:57:34.573Z,7.10
2022-08-26T12:02:34.596Z,8.10
2022-08-26T12:07:34.530Z,8.10
2022-08-26T12:12:35.221Z,10.50
2022-08-26T12:17:34.628Z,10.50
2022-08-26T12:22:34.599Z,11.10
2022-08-26T12:27:34.572Z,11.10
2022-08-26T12:32:34.633Z,8.20
2022-08-26T12:37:34.561Z,8.20
2022-08-26T12:42:34.633Z,8.80
2022-08-26T12:47:43.601Z,8.80
2022-08-26T12:52:34.654Z,9.90
2022-08-26T12:57:34.644Z,9.90
2022-08-26T13:02:34.705Z,7.50
2022-08-26T13:07:34.576Z,7.50
2022-08-26T13:12:34.658Z,9.20
2022-08-26T13:17:34.599Z,9.20
2022-08-26T13:22:34.718Z,9.10
2022-08-26T13:27:34.648Z,9.10
2022-08-26T13:32:34.635Z,8.20
2022-08-26T13:37:35.540Z,8.20
2022-08-26T13:42:34.710Z,8.00
2022-08-26T13:47:34.602Z,8.00
2022-08-26T13:52:34.671Z,7.30
2022-08-26T13:57:34.688Z,7.30
2022-08-26T14:02:34.657Z,6.00
2022-08-26T14:07:34.699Z,6.00
2022-08-26T14:12:34.677Z,8.20
2022-08-26T14:17:34.622Z,8.20
2022-08-26T14:22:37.819Z,7.60
2022-08-26T14:27:34.690Z,7.60
2022-08-26T14:32:34.682Z,7.30
2022-08-26T14:37:34.644Z,7.30
2022-08-26T14:42:34.686Z,7.70
2022-08-26T14:47:34.661Z,7.70
2022-08-26T14:52:34.708Z,8.70
2022-08-26T14:57:34.691Z,8.70
2022-08-26T15:02:34.788Z,7.50
2022-08-26T15:07:34.654Z,7.50
2022-08-26T15:12:34.696Z,6.40
2022-08-26T15:17:34.678Z,6.40
2022-08-26T15:22:34.700Z,9.20
2022-08-26T15:27:34.706Z,9.20
2022-08-26T15:32:34.693Z,6.60
2022-08-26T15:37:34.689Z,6.60
2022-08-26T15:42:34.822Z,8.20
2022-08-26T15:47:48.381Z,8.20
2022-08-26T15:52:34.736Z,6.90
2022-08-26T15:57:34.733Z,6.90
2022-08-26T16:02:34.738Z,7.20
2022-08-26T16:07:34.697Z,7.20
2022-08-26T16:12:34.727Z,8.20
2022-08-26T16:17:34.695Z,8.20
2022-08-26T16:22:34.842Z,8.00
2022-08-26T16:27:34.746Z,8.00
2022-08-26T16:32:34.755Z,8.10
2022-08-26T16:37:37.670Z,8.10
2022-08-26T16:42:34.782Z,7.50
2022-08-26T16:47:34.725Z,7.50
2022-08-26T16:57:34.751Z,7.80
2022-08-26T17:02:34.758Z,6.20
2022-08-26T17:07:34.780Z,6.20
2022-08-26T17:12:34.783Z,7.20
2022-08-26T17:17:34.772Z,7.20
2022-08-26T17:22:34.836Z,6.50
2022-08-26T17:27:34.798Z,6.50
2022-08-26T17:32:34.732Z,8.30
2022-08-26T17:37:34.763Z,8.30
2022-08-26T17:42:34.798Z,8.20
2022-08-26T17:47:34.760Z,8.20
2022-08-26T17:52:34.740Z,7.30
2022-08-26T17:57:40.549Z,7.30
2022-08-26T18:02:34.755Z,7.90
2022-08-26T18:07:39.042Z,7.90
2022-08-26T18:12:34.781Z,6.40
2022-08-26T18:17:34.897Z,6.40
2022-08-26T18:22:34.745Z,8.50
2022-08-26T18:27:34.804Z,8.50
2022-08-26T18:32:34.782Z,9.40
2022-08-26T18:37:34.791Z,9.40
2022-08-26T18:42:34.804Z,6.80
2022-08-26T18:47:34.822Z,6.80
2022-08-26T18:52:34.764Z,7.50
2022-08-26T18:57:34.821Z,7.50
2022-08-26T19:02:35.038Z,9.00
2022-08-26T19:07:39.426Z,9.00
2022-08-26T19:12:34.867Z,8.20
2022-08-26T19:17:35.000Z,8.20
2022-08-26T19:22:34.990Z,8.30
2022-08-26T19:27:35.018Z,8.30
2022-08-26T19:32:34.918Z,10.80
2022-08-26T19:37:34.898Z,10.80
2022-08-26T19:42:35.050Z,8.50
2022-08-26T19:47:35.012Z,8.50
2022-08-26T19:52:34.986Z,10.10
2022-08-26T19:57:35.039Z,10.10
2022-08-26T20:02:35.038Z,10.50
2022-08-26T20:07:35.083Z,10.50
2022-08-26T20:12:35.025Z,8.30
2022-08-26T20:17:35.075Z,8.30
2022-08-26T20:22:34.843Z,10.60
2022-08-26T20:27:38.445Z,10.60
2022-08-26T20:32:35.645Z,10.60
2022-08-26T20:37:34.995Z,8.20
2022-08-26T20:42:34.945Z,8.20
2022-08-26T20:47:34.905Z,9.50
2022-08-26T20:52:34.861Z,9.50
2022-08-26T20:57:34.988Z,8.90
2022-08-26T21:02:34.865Z,8.90
2022-08-26T21:07:34.932Z,9.30
2022-08-26T21:12:34.921Z,9.30
2022-08-26T21:17:34.959Z,7.50
2022-08-26T21:22:34.872Z,7.50
2022-08-26T21:27:34.917Z,7.90
2022-08-26T21:32:34.876Z,7.90
2022-08-26T21:37:34.916Z,9.90
2022-08-26T21:42:34.924Z,9.90
2022-08-26T21:47:35.015Z,9.40
2022-08-26T21:52:34.906Z,9.40
2022-08-26T21:57:35.038Z,9.40
2022-08-26T22:02:34.952Z,9.40
2022-08-26T22:07:34.950Z,9.90
2022-08-26T22:12:34.931Z,9.90
2022-08-26T22:17:34.954Z,9.50
2022-08-26T22:22:35.112Z,9.50
2022-08-26T22:27:34.960Z,9.40
2022-08-26T22:32:34.911Z,9.40
2022-08-26T22:37:35.131Z,10.00
2022-08-26T22:42:34.907Z,10.00
2022-08-26T22:47:34.946Z,8.80
2022-08-26T22:52:34.955Z,8.80
2022-08-26T22:57:34.950Z,9.40
2022-08-26T23:02:34.933Z,9.40
2022-08-26T23:07:34.976Z,8.70
2022-08-26T23:12:34.936Z,8.70
2022-08-26T23:17:34.970Z,8.40
2022-08-26T23:22:34.990Z,8.40
2022-08-26T23:27:34.999Z,8.40
2022-08-26T23:32:34.947Z,8.40
2022-08-26T23:37:35.017Z,10.20
2022-08-26T23:42:34.933Z,10.20
2022-08-26T23:47:34.988Z,9.90
2022-08-26T23:52:34.996Z,9.90
2022-08-26T23:57:34.974Z,9.80
